sensor_id;sensor_type;location;lat;lon;timestamp;P1;durP1;ratioP1;P2;durP2;ratioP2
30862;SDS011;17573;55.922;37.540;2023-02-11T00:00:37;33.53;;;15.30;;
30862;SDS011;17573;55.922;37.540;2023-02-11T00:03:04;33.05;;;15.68;;
30862;SDS011;17573;55.922;37.540;2023-02-11T00:05:30;33.67;;;15.52;;
30862;SDS011;17573;55.922;37.540;2023-02-11T00:07:55;31.73;;;15.20;;
30862;SDS011;17573;55.922;37.540;2023-02-11T00:10:21;33.70;;;14.80;;
30862;SDS011;17573;55.922;37.540;2023-02-11T00:12:47;24.20;;;13.45;;
30862;SDS011;17573;55.922;37.540;2023-02-11T00:15:13;27.77;;;13.95;;
30862;SDS011;17573;55.922;37.540;2023-02-11T00:17:38;31.45;;;14.70;;
30862;SDS011;17573;55.922;37.540;2023-02-11T00:20:05;33.67;;;14.70;;
30862;SDS011;17573;55.922;37.540;2023-02-11T00:22:31;33.13;;;14.50;;
30862;SDS011;17573;55.922;37.540;2023-02-11T00:24:56;21.20;;;12.20;;
30862;SDS011;17573;55.922;37.540;2023-02-11T00:27:22;30.02;;;13.40;;
30862;SDS011;17573;55.922;37.540;2023-02-11T00:29:50;30.25;;;12.82;;
30862;SDS011;17573;55.922;37.540;2023-02-11T00:32:15;30.95;;;14.38;;
30862;SDS011;17573;55.922;37.540;2023-02-11T00:34:41;32.80;;;13.45;;
30862;SDS011;17573;55.922;37.540;2023-02-11T00:37:07;37.83;;;12.90;;
30862;SDS011;17573;55.922;37.540;2023-02-11T00:39:33;20.30;;;11.57;;
30862;SDS011;17573;55.922;37.540;2023-02-11T00:42:01;31.30;;;13.68;;
30862;SDS011;17573;55.922;37.540;2023-02-11T00:44:26;23.80;;;12.52;;
30862;SDS011;17573;55.922;37.540;2023-02-11T00:46:52;22.02;;;9.55;;
30862;SDS011;17573;55.922;37.540;2023-02-11T00:49:18;30.70;;;12.00;;
30862;SDS011;17573;55.922;37.540;2023-02-11T00:51:44;30.38;;;11.73;;
30862;SDS011;17573;55.922;37.540;2023-02-11T00:54:11;24.98;;;12.25;;
30862;SDS011;17573;55.922;37.540;2023-02-11T00:56:37;25.95;;;11.68;;
30862;SDS011;17573;55.922;37.540;2023-02-11T00:59:03;21.92;;;11.50;;
30862;SDS011;17573;55.922;37.540;2023-02-11T01:01:29;29.45;;;11.65;;
30862;SDS011;17573;55.922;37.540;2023-02-11T01:03:55;21.30;;;11.20;;
30862;SDS011;17573;55.922;37.540;2023-02-11T01:06:22;24.58;;;11.10;;
30862;SDS011;17573;55.922;37.540;2023-02-11T01:08:47;23.10;;;11.82;;
30862;SDS011;17573;55.922;37.540;2023-02-11T01:11:15;18.92;;;9.65;;
30862;SDS011;17573;55.922;37.540;2023-02-11T01:13:44;21.15;;;10.82;;
30862;SDS011;17573;55.922;37.540;2023-02-11T01:16:10;27.05;;;11.05;;
30862;SDS011;17573;55.922;37.540;2023-02-11T01:18:37;29.40;;;11.30;;
30862;SDS011;17573;55.922;37.540;2023-02-11T01:21:03;26.50;;;10.23;;
30862;SDS011;17573;55.922;37.540;2023-02-11T01:23:29;21.70;;;10.90;;
30862;SDS011;17573;55.922;37.540;2023-02-11T01:25:55;20.83;;;10.82;;
30862;SDS011;17573;55.922;37.540;2023-02-11T01:28:25;21.85;;;10.48;;
30862;SDS011;17573;55.922;37.540;2023-02-11T01:30:52;25.45;;;10.73;;
30862;SDS011;17573;55.922;37.540;2023-02-11T01:33:18;19.52;;;11.07;;
30862;SDS011;17573;55.922;37.540;2023-02-11T01:35:45;24.80;;;11.88;;
30862;SDS011;17573;55.922;37.540;2023-02-11T01:38:15;24.52;;;11.45;;
30862;SDS011;17573;55.922;37.540;2023-02-11T01:40:50;20.70;;;10.20;;
30862;SDS011;17573;55.922;37.540;2023-02-11T01:43:17;26.17;;;9.85;;
30862;SDS011;17573;55.922;37.540;2023-02-11T01:48:11;26.58;;;10.10;;
30862;SDS011;17573;55.922;37.540;2023-02-11T01:50:39;19.40;;;8.95;;
30862;SDS011;17573;55.922;37.540;2023-02-11T01:53:06;18.33;;;8.65;;
30862;SDS011;17573;55.922;37.540;2023-02-11T01:55:52;22.15;;;8.88;;
30862;SDS011;17573;55.922;37.540;2023-02-11T01:58:37;16.33;;;8.10;;
30862;SDS011;17573;55.922;37.540;2023-02-11T02:01:06;22.23;;;9.98;;
30862;SDS011;17573;55.922;37.540;2023-02-11T02:03:33;21.20;;;9.70;;
30862;SDS011;17573;55.922;37.540;2023-02-11T02:08:33;17.10;;;8.63;;
30862;SDS011;17573;55.922;37.540;2023-02-11T02:11:03;19.95;;;11.38;;
30862;SDS011;17573;55.922;37.540;2023-02-11T02:13:30;20.48;;;8.93;;
30862;SDS011;17573;55.922;37.540;2023-02-11T02:16:18;27.45;;;9.43;;
30862;SDS011;17573;55.922;37.540;2023-02-11T02:18:53;14.98;;;8.15;;
30862;SDS011;17573;55.922;37.540;2023-02-11T02:24:21;18.63;;;8.57;;
30862;SDS011;17573;55.922;37.540;2023-02-11T02:30:02;16.27;;;8.00;;
30862;SDS011;17573;55.922;37.540;2023-02-11T02:32:57;15.45;;;6.88;;
30862;SDS011;17573;55.922;37.540;2023-02-11T02:35:39;14.88;;;7.78;;
30862;SDS011;17573;55.922;37.540;2023-02-11T02:40:58;13.13;;;6.65;;
30862;SDS011;17573;55.922;37.540;2023-02-11T02:43:27;14.70;;;7.28;;
30862;SDS011;17573;55.922;37.540;2023-02-11T02:45:54;19.10;;;8.13;;
30862;SDS011;17573;55.922;37.540;2023-02-11T02:48:27;15.38;;;6.97;;
30862;SDS011;17573;55.922;37.540;2023-02-11T02:59:58;18.67;;;7.63;;
30862;SDS011;17573;55.922;37.540;2023-02-11T03:10:53;21.08;;;7.90;;
30862;SDS011;17573;55.922;37.540;2023-02-11T03:13:21;13.13;;;7.22;;
30862;SDS011;17573;55.922;37.540;2023-02-11T03:15:49;15.75;;;7.55;;
30862;SDS011;17573;55.922;37.540;2023-02-11T03:18:17;12.25;;;7.70;;
30862;SDS011;17573;55.922;37.540;2023-02-11T03:20:44;17.85;;;6.93;;
30862;SDS011;17573;55.922;37.540;2023-02-11T03:23:21;13.05;;;7.95;;
30862;SDS011;17573;55.922;37.540;2023-02-11T03:25:57;15.57;;;6.97;;
30862;SDS011;17573;55.922;37.540;2023-02-11T03:31:24;19.15;;;7.22;;
30862;SDS011;17573;55.922;37.540;2023-02-11T03:34:01;11.40;;;6.35;;
30862;SDS011;17573;55.922;37.540;2023-02-11T03:36:52;13.95;;;8.18;;
30862;SDS011;17573;55.922;37.540;2023-02-11T03:39:26;13.88;;;8.15;;
30862;SDS011;17573;55.922;37.540;2023-02-11T03:41:55;11.75;;;7.20;;
30862;SDS011;17573;55.922;37.540;2023-02-11T03:44:24;13.48;;;7.10;;
30862;SDS011;17573;55.922;37.540;2023-02-11T03:46:52;13.93;;;6.28;;
30862;SDS011;17573;55.922;37.540;2023-02-11T03:49:19;9.48;;;6.82;;
30862;SDS011;17573;55.922;37.540;2023-02-11T03:51:46;16.30;;;6.40;;
30862;SDS011;17573;55.922;37.540;2023-02-11T03:54:15;20.92;;;6.97;;
30862;SDS011;17573;55.922;37.540;2023-02-11T03:56:48;21.95;;;7.25;;
30862;SDS011;17573;55.922;37.540;2023-02-11T03:59:16;18.25;;;7.10;;
30862;SDS011;17573;55.922;37.540;2023-02-11T04:01:42;10.73;;;6.40;;
30862;SDS011;17573;55.922;37.540;2023-02-11T04:04:08;16.45;;;6.65;;
30862;SDS011;17573;55.922;37.540;2023-02-11T04:06:34;16.52;;;6.90;;
30862;SDS011;17573;55.922;37.540;2023-02-11T04:09:00;13.80;;;5.93;;
30862;SDS011;17573;55.922;37.540;2023-02-11T04:11:26;9.15;;;5.00;;
30862;SDS011;17573;55.922;37.540;2023-02-11T04:13:51;11.40;;;5.82;;
30862;SDS011;17573;55.922;37.540;2023-02-11T04:16:17;12.43;;;6.43;;
30862;SDS011;17573;55.922;37.540;2023-02-11T04:18:43;16.52;;;7.07;;
30862;SDS011;17573;55.922;37.540;2023-02-11T04:21:09;14.23;;;7.10;;
30862;SDS011;17573;55.922;37.540;2023-02-11T04:23:35;15.35;;;7.40;;
30862;SDS011;17573;55.922;37.540;2023-02-11T04:26:01;11.90;;;6.40;;
30862;SDS011;17573;55.922;37.540;2023-02-11T04:28:27;21.67;;;7.07;;
30862;SDS011;17573;55.922;37.540;2023-02-11T04:30:54;12.75;;;6.07;;
30862;SDS011;17573;55.922;37.540;2023-02-11T04:33:20;16.17;;;7.70;;
30862;SDS011;17573;55.922;37.540;2023-02-11T04:35:46;10.88;;;6.60;;
30862;SDS011;17573;55.922;37.540;2023-02-11T04:38:12;8.43;;;5.55;;
30862;SDS011;17573;55.922;37.540;2023-02-11T04:40:38;29.38;;;7.45;;
30862;SDS011;17573;55.922;37.540;2023-02-11T04:43:05;16.88;;;6.88;;
30862;SDS011;17573;55.922;37.540;2023-02-11T04:45:31;10.85;;;5.60;;
30862;SDS011;17573;55.922;37.540;2023-02-11T04:47:57;15.80;;;6.25;;
30862;SDS011;17573;55.922;37.540;2023-02-11T04:50:23;13.25;;;5.68;;
30862;SDS011;17573;55.922;37.540;2023-02-11T04:52:48;12.07;;;5.70;;
30862;SDS011;17573;55.922;37.540;2023-02-11T04:55:14;13.52;;;5.70;;
30862;SDS011;17573;55.922;37.540;2023-02-11T04:57:40;11.52;;;6.30;;
30862;SDS011;17573;55.922;37.540;2023-02-11T05:00:06;8.70;;;5.70;;
30862;SDS011;17573;55.922;37.540;2023-02-11T05:02:34;11.30;;;5.78;;
30862;SDS011;17573;55.922;37.540;2023-02-11T05:05:00;9.35;;;6.22;;
30862;SDS011;17573;55.922;37.540;2023-02-11T05:07:26;10.43;;;6.97;;
30862;SDS011;17573;55.922;37.540;2023-02-11T05:09:52;9.95;;;6.40;;
30862;SDS011;17573;55.922;37.540;2023-02-11T05:12:18;16.33;;;6.93;;
30862;SDS011;17573;55.922;37.540;2023-02-11T05:14:44;10.25;;;5.50;;
30862;SDS011;17573;55.922;37.540;2023-02-11T05:17:10;10.95;;;6.60;;
30862;SDS011;17573;55.922;37.540;2023-02-11T05:19:35;20.95;;;6.70;;
30862;SDS011;17573;55.922;37.540;2023-02-11T05:22:01;11.02;;;6.25;;
30862;SDS011;17573;55.922;37.540;2023-02-11T05:24:27;10.60;;;5.88;;
30862;SDS011;17573;55.922;37.540;2023-02-11T05:26:53;12.25;;;6.53;;
30862;SDS011;17573;55.922;37.540;2023-02-11T05:29:19;13.35;;;5.85;;
30862;SDS011;17573;55.922;37.540;2023-02-11T05:31:44;9.25;;;6.20;;
30862;SDS011;17573;55.922;37.540;2023-02-11T05:34:10;15.85;;;6.15;;
30862;SDS011;17573;55.922;37.540;2023-02-11T05:36:36;9.90;;;6.25;;
30862;SDS011;17573;55.922;37.540;2023-02-11T05:39:02;12.98;;;7.10;;
30862;SDS011;17573;55.922;37.540;2023-02-11T05:41:27;13.73;;;7.63;;
30862;SDS011;17573;55.922;37.540;2023-02-11T05:43:53;13.07;;;6.25;;
30862;SDS011;17573;55.922;37.540;2023-02-11T05:46:19;16.10;;;7.45;;
30862;SDS011;17573;55.922;37.540;2023-02-11T05:48:45;10.20;;;6.68;;
30862;SDS011;17573;55.922;37.540;2023-02-11T05:51:11;18.80;;;6.60;;
30862;SDS011;17573;55.922;37.540;2023-02-11T05:53:36;10.60;;;7.60;;
30862;SDS011;17573;55.922;37.540;2023-02-11T05:56:02;15.32;;;7.35;;
30862;SDS011;17573;55.922;37.540;2023-02-11T05:58:28;12.07;;;6.93;;
30862;SDS011;17573;55.922;37.540;2023-02-11T06:00:54;9.68;;;5.32;;
30862;SDS011;17573;55.922;37.540;2023-02-11T06:03:20;15.05;;;7.03;;
30862;SDS011;17573;55.922;37.540;2023-02-11T06:05:46;13.93;;;7.07;;
30862;SDS011;17573;55.922;37.540;2023-02-11T06:08:12;13.88;;;6.95;;
30862;SDS011;17573;55.922;37.540;2023-02-11T06:10:38;20.50;;;7.32;;
30862;SDS011;17573;55.922;37.540;2023-02-11T06:13:06;18.88;;;6.88;;
30862;SDS011;17573;55.922;37.540;2023-02-11T06:15:32;14.68;;;7.78;;
30862;SDS011;17573;55.922;37.540;2023-02-11T06:17:58;12.10;;;5.95;;
30862;SDS011;17573;55.922;37.540;2023-02-11T06:20:23;13.38;;;6.18;;
30862;SDS011;17573;55.922;37.540;2023-02-11T06:22:49;10.65;;;6.28;;
30862;SDS011;17573;55.922;37.540;2023-02-11T06:25:15;8.40;;;5.70;;
30862;SDS011;17573;55.922;37.540;2023-02-11T06:27:41;11.23;;;6.70;;
30862;SDS011;17573;55.922;37.540;2023-02-11T06:30:07;14.60;;;6.55;;
30862;SDS011;17573;55.922;37.540;2023-02-11T06:32:33;9.20;;;6.25;;
30862;SDS011;17573;55.922;37.540;2023-02-11T06:34:59;10.57;;;5.65;;
30862;SDS011;17573;55.922;37.540;2023-02-11T06:37:25;9.63;;;6.43;;
30862;SDS011;17573;55.922;37.540;2023-02-11T06:39:51;19.73;;;7.20;;
30862;SDS011;17573;55.922;37.540;2023-02-11T06:42:16;9.68;;;5.90;;
30862;SDS011;17573;55.922;37.540;2023-02-11T06:44:42;12.70;;;8.32;;
30862;SDS011;17573;55.922;37.540;2023-02-11T06:47:09;11.48;;;7.13;;
30862;SDS011;17573;55.922;37.540;2023-02-11T06:49:35;14.15;;;8.73;;
30862;SDS011;17573;55.922;37.540;2023-02-11T06:52:01;11.38;;;5.90;;
30862;SDS011;17573;55.922;37.540;2023-02-11T06:54:27;11.02;;;6.45;;
30862;SDS011;17573;55.922;37.540;2023-02-11T06:56:53;18.85;;;7.05;;
30862;SDS011;17573;55.922;37.540;2023-02-11T06:59:19;12.43;;;6.80;;
30862;SDS011;17573;55.922;37.540;2023-02-11T07:01:45;14.25;;;7.40;;
30862;SDS011;17573;55.922;37.540;2023-02-11T07:04:11;13.20;;;6.53;;
30862;SDS011;17573;55.922;37.540;2023-02-11T07:06:39;18.42;;;6.63;;
30862;SDS011;17573;55.922;37.540;2023-02-11T07:09:06;11.25;;;5.75;;
30862;SDS011;17573;55.922;37.540;2023-02-11T07:11:32;11.57;;;6.03;;
30862;SDS011;17573;55.922;37.540;2023-02-11T07:13:59;12.00;;;7.38;;
30862;SDS011;17573;55.922;37.540;2023-02-11T07:16:28;14.88;;;7.05;;
30862;SDS011;17573;55.922;37.540;2023-02-11T07:18:53;10.02;;;6.18;;
30862;SDS011;17573;55.922;37.540;2023-02-11T07:21:20;19.73;;;7.55;;
30862;SDS011;17573;55.922;37.540;2023-02-11T07:23:47;17.60;;;6.75;;
30862;SDS011;17573;55.922;37.540;2023-02-11T07:26:15;14.93;;;6.50;;
30862;SDS011;17573;55.922;37.540;2023-02-11T07:28:42;20.40;;;7.30;;
30862;SDS011;17573;55.922;37.540;2023-02-11T07:31:09;16.77;;;6.78;;
30862;SDS011;17573;55.922;37.540;2023-02-11T07:33:38;11.80;;;6.07;;
30862;SDS011;17573;55.922;37.540;2023-02-11T07:36:05;12.68;;;6.78;;
30862;SDS011;17573;55.922;37.540;2023-02-11T07:38:32;13.60;;;6.13;;
30862;SDS011;17573;55.922;37.540;2023-02-11T07:40:59;11.35;;;7.25;;
30862;SDS011;17573;55.922;37.540;2023-02-11T07:43:26;15.98;;;6.10;;
30862;SDS011;17573;55.922;37.540;2023-02-11T07:45:52;17.45;;;7.20;;
30862;SDS011;17573;55.922;37.540;2023-02-11T07:48:18;14.40;;;6.55;;
30862;SDS011;17573;55.922;37.540;2023-02-11T07:50:43;11.77;;;7.05;;
30862;SDS011;17573;55.922;37.540;2023-02-11T07:53:09;14.48;;;7.57;;
30862;SDS011;17573;55.922;37.540;2023-02-11T07:55:35;15.88;;;7.70;;
30862;SDS011;17573;55.922;37.540;2023-02-11T07:58:01;19.40;;;7.70;;
30862;SDS011;17573;55.922;37.540;2023-02-11T08:00:26;13.30;;;7.78;;
30862;SDS011;17573;55.922;37.540;2023-02-11T08:02:52;21.92;;;7.88;;
30862;SDS011;17573;55.922;37.540;2023-02-11T08:05:18;21.90;;;8.23;;
30862;SDS011;17573;55.922;37.540;2023-02-11T08:07:44;26.80;;;7.97;;
30862;SDS011;17573;55.922;37.540;2023-02-11T08:10:10;21.48;;;8.35;;
30862;SDS011;17573;55.922;37.540;2023-02-11T08:12:37;29.65;;;9.35;;
30862;SDS011;17573;55.922;37.540;2023-02-11T08:15:03;21.33;;;9.30;;
30862;SDS011;17573;55.922;37.540;2023-02-11T08:17:29;15.07;;;7.65;;
30862;SDS011;17573;55.922;37.540;2023-02-11T08:19:55;32.33;;;9.02;;
30862;SDS011;17573;55.922;37.540;2023-02-11T08:22:21;13.95;;;9.32;;
30862;SDS011;17573;55.922;37.540;2023-02-11T08:24:47;19.98;;;9.25;;
30862;SDS011;17573;55.922;37.540;2023-02-11T08:27:12;27.33;;;10.73;;
30862;SDS011;17573;55.922;37.540;2023-02-11T08:29:38;29.00;;;11.95;;
30862;SDS011;17573;55.922;37.540;2023-02-11T08:32:04;22.80;;;10.60;;
30862;SDS011;17573;55.922;37.540;2023-02-11T08:34:30;29.13;;;8.48;;
30862;SDS011;17573;55.922;37.540;2023-02-11T08:36:56;15.20;;;9.05;;
30862;SDS011;17573;55.922;37.540;2023-02-11T08:39:22;20.88;;;9.98;;
30862;SDS011;17573;55.922;37.540;2023-02-11T08:41:48;20.50;;;8.95;;
30862;SDS011;17573;55.922;37.540;2023-02-11T08:44:17;15.40;;;8.07;;
30862;SDS011;17573;55.922;37.540;2023-02-11T08:46:43;12.68;;;8.18;;
30862;SDS011;17573;55.922;37.540;2023-02-11T08:49:09;25.38;;;10.10;;
30862;SDS011;17573;55.922;37.540;2023-02-11T08:51:35;23.48;;;11.30;;
30862;SDS011;17573;55.922;37.540;2023-02-11T08:54:00;38.15;;;12.77;;
30862;SDS011;17573;55.922;37.540;2023-02-11T08:56:26;14.88;;;9.10;;
30862;SDS011;17573;55.922;37.540;2023-02-11T08:58:53;22.42;;;8.13;;
30862;SDS011;17573;55.922;37.540;2023-02-11T09:01:27;23.98;;;9.90;;
30862;SDS011;17573;55.922;37.540;2023-02-11T09:03:54;22.02;;;7.88;;
30862;SDS011;17573;55.922;37.540;2023-02-11T09:06:21;18.73;;;9.90;;
30862;SDS011;17573;55.922;37.540;2023-02-11T09:08:48;13.48;;;8.45;;
30862;SDS011;17573;55.922;37.540;2023-02-11T09:11:15;22.08;;;10.80;;
30862;SDS011;17573;55.922;37.540;2023-02-11T09:13:42;26.70;;;10.50;;
30862;SDS011;17573;55.922;37.540;2023-02-11T09:16:14;20.65;;;8.80;;
30862;SDS011;17573;55.922;37.540;2023-02-11T09:18:43;31.00;;;10.73;;
30862;SDS011;17573;55.922;37.540;2023-02-11T09:21:10;23.67;;;10.57;;
30862;SDS011;17573;55.922;37.540;2023-02-11T09:23:35;19.27;;;8.70;;
30862;SDS011;17573;55.922;37.540;2023-02-11T09:26:08;28.30;;;10.73;;
30862;SDS011;17573;55.922;37.540;2023-02-11T09:28:37;21.88;;;10.73;;
30862;SDS011;17573;55.922;37.540;2023-02-11T09:31:07;22.08;;;8.75;;
30862;SDS011;17573;55.922;37.540;2023-02-11T09:33:33;23.63;;;8.23;;
30862;SDS011;17573;55.922;37.540;2023-02-11T09:36:03;14.13;;;7.88;;
30862;SDS011;17573;55.922;37.540;2023-02-11T09:38:29;24.23;;;9.35;;
30862;SDS011;17573;55.922;37.540;2023-02-11T09:40:55;21.85;;;10.13;;
30862;SDS011;17573;55.922;37.540;2023-02-11T09:43:22;20.10;;;9.60;;
30862;SDS011;17573;55.922;37.540;2023-02-11T09:45:52;23.08;;;8.18;;
30862;SDS011;17573;55.922;37.540;2023-02-11T09:48:20;14.43;;;8.30;;
30862;SDS011;17573;55.922;37.540;2023-02-11T09:50:50;20.67;;;8.63;;
30862;SDS011;17573;55.922;37.540;2023-02-11T09:53:38;18.75;;;8.05;;
30862;SDS011;17573;55.922;37.540;2023-02-11T09:56:10;17.85;;;10.23;;
30862;SDS011;17573;55.922;37.540;2023-02-11T09:58:39;15.32;;;9.13;;
30862;SDS011;17573;55.922;37.540;2023-02-11T10:11:51;25.70;;;9.65;;
30862;SDS011;17573;55.922;37.540;2023-02-11T10:19:55;18.30;;;9.25;;
30862;SDS011;17573;55.922;37.540;2023-02-11T10:22:40;14.63;;;9.48;;
30862;SDS011;17573;55.922;37.540;2023-02-11T10:25:19;8.23;;;6.20;;
30862;SDS011;17573;55.922;37.540;2023-02-11T10:27:51;26.52;;;9.07;;
30862;SDS011;17573;55.922;37.540;2023-02-11T10:32:59;27.45;;;9.57;;
30862;SDS011;17573;55.922;37.540;2023-02-11T10:35:48;16.17;;;9.43;;
30862;SDS011;17573;55.922;37.540;2023-02-11T10:38:13;22.30;;;9.88;;
30862;SDS011;17573;55.922;37.540;2023-02-11T10:40:39;22.80;;;11.02;;
30862;SDS011;17573;55.922;37.540;2023-02-11T10:43:07;23.98;;;10.13;;
30862;SDS011;17573;55.922;37.540;2023-02-11T10:45:37;19.38;;;9.30;;
30862;SDS011;17573;55.922;37.540;2023-02-11T10:48:54;18.05;;;10.52;;
30862;SDS011;17573;55.922;37.540;2023-02-11T10:51:25;32.20;;;9.70;;
30862;SDS011;17573;55.922;37.540;2023-02-11T10:56:36;20.13;;;10.30;;
30862;SDS011;17573;55.922;37.540;2023-02-11T11:01:51;20.63;;;10.25;;
30862;SDS011;17573;55.922;37.540;2023-02-11T11:07:19;25.38;;;8.77;;
30862;SDS011;17573;55.922;37.540;2023-02-11T11:18:28;28.63;;;12.18;;
30862;SDS011;17573;55.922;37.540;2023-02-11T11:20:40;25.65;;;11.40;;
30862;SDS011;17573;55.922;37.540;2023-02-11T11:23:27;19.20;;;10.18;;
30862;SDS011;17573;55.922;37.540;2023-02-11T11:26:13;18.00;;;10.55;;
30862;SDS011;17573;55.922;37.540;2023-02-11T11:28:41;20.52;;;10.02;;
30862;SDS011;17573;55.922;37.540;2023-02-11T11:31:15;38.05;;;12.90;;
30862;SDS011;17573;55.922;37.540;2023-02-11T11:33:43;22.23;;;11.18;;
30862;SDS011;17573;55.922;37.540;2023-02-11T11:36:11;24.02;;;11.60;;
30862;SDS011;17573;55.922;37.540;2023-02-11T11:38:53;12.93;;;10.02;;
30862;SDS011;17573;55.922;37.540;2023-02-11T11:41:27;29.25;;;11.90;;
30862;SDS011;17573;55.922;37.540;2023-02-11T11:43:59;24.95;;;11.27;;
30862;SDS011;17573;55.922;37.540;2023-02-11T11:49:03;22.90;;;10.63;;
30862;SDS011;17573;55.922;37.540;2023-02-11T11:51:37;14.93;;;8.88;;
30862;SDS011;17573;55.922;37.540;2023-02-11T11:54:07;18.58;;;9.88;;
30862;SDS011;17573;55.922;37.540;2023-02-11T11:56:39;18.88;;;11.05;;
30862;SDS011;17573;55.922;37.540;2023-02-11T11:59:10;22.00;;;10.25;;
30862;SDS011;17573;55.922;37.540;2023-02-11T12:01:46;15.63;;;9.70;;
30862;SDS011;17573;55.922;37.540;2023-02-11T12:17:10;19.73;;;10.40;;
30862;SDS011;17573;55.922;37.540;2023-02-11T12:25:42;23.00;;;10.32;;
30862;SDS011;17573;55.922;37.540;2023-02-11T12:45:30;41.40;;;11.40;;
30862;SDS011;17573;55.922;37.540;2023-02-11T12:48:15;22.48;;;11.85;;
30862;SDS011;17573;55.922;37.540;2023-02-11T12:56:18;20.52;;;8.70;;
30862;SDS011;17573;55.922;37.540;2023-02-11T12:58:49;22.58;;;11.68;;
30862;SDS011;17573;55.922;37.540;2023-02-11T13:01:22;26.73;;;9.38;;
30862;SDS011;17573;55.922;37.540;2023-02-11T13:03:58;38.50;;;16.17;;
30862;SDS011;17573;55.922;37.540;2023-02-11T13:06:34;32.20;;;14.65;;
30862;SDS011;17573;55.922;37.540;2023-02-11T13:09:03;35.10;;;14.63;;
30862;SDS011;17573;55.922;37.540;2023-02-11T13:11:35;39.35;;;15.38;;
30862;SDS011;17573;55.922;37.540;2023-02-11T13:14:05;22.10;;;12.23;;
30862;SDS011;17573;55.922;37.540;2023-02-11T13:16:43;28.40;;;12.63;;
30862;SDS011;17573;55.922;37.540;2023-02-11T13:27:12;30.42;;;12.98;;
30862;SDS011;17573;55.922;37.540;2023-02-11T13:33:00;29.10;;;12.68;;
30862;SDS011;17573;55.922;37.540;2023-02-11T13:37:56;42.03;;;14.95;;
30862;SDS011;17573;55.922;37.540;2023-02-11T13:40:41;26.35;;;11.02;;
30862;SDS011;17573;55.922;37.540;2023-02-11T13:43:19;23.75;;;11.82;;
30862;SDS011;17573;55.922;37.540;2023-02-11T13:45:49;36.05;;;16.77;;
30862;SDS011;17573;55.922;37.540;2023-02-11T13:48:27;20.92;;;11.88;;
30862;SDS011;17573;55.922;37.540;2023-02-11T13:51:15;27.95;;;12.98;;
30862;SDS011;17573;55.922;37.540;2023-02-11T13:53:47;37.72;;;13.82;;
30862;SDS011;17573;55.922;37.540;2023-02-11T13:59:00;31.08;;;14.80;;
30862;SDS011;17573;55.922;37.540;2023-02-11T14:01:38;27.45;;;13.30;;
30862;SDS011;17573;55.922;37.540;2023-02-11T14:04:22;22.35;;;11.63;;
30862;SDS011;17573;55.922;37.540;2023-02-11T14:07:24;31.35;;;13.32;;
30862;SDS011;17573;55.922;37.540;2023-02-11T14:13:22;26.00;;;12.65;;
30862;SDS011;17573;55.922;37.540;2023-02-11T14:16:07;32.40;;;10.57;;
30862;SDS011;17573;55.922;37.540;2023-02-11T14:21:14;39.70;;;13.80;;
30862;SDS011;17573;55.922;37.540;2023-02-11T14:23:43;36.15;;;15.65;;
30862;SDS011;17573;55.922;37.540;2023-02-11T14:34:30;30.98;;;15.30;;
30862;SDS011;17573;55.922;37.540;2023-02-11T14:37:12;35.92;;;17.60;;
30862;SDS011;17573;55.922;37.540;2023-02-11T14:42:18;33.90;;;15.43;;
30862;SDS011;17573;55.922;37.540;2023-02-11T14:44:46;39.45;;;14.15;;
30862;SDS011;17573;55.922;37.540;2023-02-11T14:47:18;22.92;;;11.73;;
30862;SDS011;17573;55.922;37.540;2023-02-11T14:49:47;18.27;;;11.20;;
30862;SDS011;17573;55.922;37.540;2023-02-11T14:54:41;29.23;;;13.20;;
30862;SDS011;17573;55.922;37.540;2023-02-11T14:57:13;33.42;;;14.38;;
30862;SDS011;17573;55.922;37.540;2023-02-11T14:59:39;35.97;;;14.80;;
30862;SDS011;17573;55.922;37.540;2023-02-11T15:02:21;37.55;;;14.50;;
30862;SDS011;17573;55.922;37.540;2023-02-11T15:04:48;31.08;;;14.32;;
30862;SDS011;17573;55.922;37.540;2023-02-11T15:07:14;33.08;;;14.93;;
30862;SDS011;17573;55.922;37.540;2023-02-11T15:09:44;26.35;;;14.90;;
30862;SDS011;17573;55.922;37.540;2023-02-11T15:12:16;30.45;;;14.02;;
30862;SDS011;17573;55.922;37.540;2023-02-11T15:14:52;37.97;;;15.15;;
30862;SDS011;17573;55.922;37.540;2023-02-11T15:17:23;32.65;;;16.55;;
30862;SDS011;17573;55.922;37.540;2023-02-11T15:19:52;32.72;;;18.02;;
30862;SDS011;17573;55.922;37.540;2023-02-11T15:22:21;23.08;;;12.38;;
30862;SDS011;17573;55.922;37.540;2023-02-11T15:25:07;36.65;;;14.93;;
30862;SDS011;17573;55.922;37.540;2023-02-11T15:28:09;25.80;;;13.23;;
30862;SDS011;17573;55.922;37.540;2023-02-11T15:30:35;38.05;;;16.25;;
30862;SDS011;17573;55.922;37.540;2023-02-11T15:33:01;37.22;;;16.33;;
30862;SDS011;17573;55.922;37.540;2023-02-11T15:35:32;41.00;;;14.93;;
30862;SDS011;17573;55.922;37.540;2023-02-11T15:38:03;22.92;;;12.85;;
30862;SDS011;17573;55.922;37.540;2023-02-11T15:40:30;31.92;;;15.30;;
30862;SDS011;17573;55.922;37.540;2023-02-11T15:43:00;37.33;;;17.80;;
30862;SDS011;17573;55.922;37.540;2023-02-11T15:45:38;29.83;;;12.93;;
30862;SDS011;17573;55.922;37.540;2023-02-11T15:48:16;25.13;;;14.60;;
30862;SDS011;17573;55.922;37.540;2023-02-11T15:50:49;34.67;;;13.60;;
30862;SDS011;17573;55.922;37.540;2023-02-11T15:53:21;43.80;;;17.30;;
30862;SDS011;17573;55.922;37.540;2023-02-11T15:55:51;25.98;;;12.48;;
30862;SDS011;17573;55.922;37.540;2023-02-11T15:58:18;32.25;;;11.13;;
30862;SDS011;17573;55.922;37.540;2023-02-11T16:00:46;37.00;;;16.90;;
30862;SDS011;17573;55.922;37.540;2023-02-11T16:03:20;31.90;;;14.45;;
30862;SDS011;17573;55.922;37.540;2023-02-11T16:05:47;32.95;;;12.27;;
30862;SDS011;17573;55.922;37.540;2023-02-11T16:08:26;33.42;;;13.68;;
30862;SDS011;17573;55.922;37.540;2023-02-11T16:11:01;40.90;;;16.60;;
30862;SDS011;17573;55.922;37.540;2023-02-11T16:13:42;30.58;;;15.73;;
30862;SDS011;17573;55.922;37.540;2023-02-11T16:16:17;32.17;;;16.80;;
30862;SDS011;17573;55.922;37.540;2023-02-11T16:18:51;26.73;;;13.90;;
30862;SDS011;17573;55.922;37.540;2023-02-11T16:21:18;24.13;;;13.43;;
30862;SDS011;17573;55.922;37.540;2023-02-11T16:23:52;39.95;;;15.77;;
30862;SDS011;17573;55.922;37.540;2023-02-11T16:26:40;41.10;;;17.98;;
30862;SDS011;17573;55.922;37.540;2023-02-11T16:29:12;31.13;;;14.52;;
30862;SDS011;17573;55.922;37.540;2023-02-11T16:31:45;39.25;;;17.48;;
30862;SDS011;17573;55.922;37.540;2023-02-11T16:34:13;27.88;;;13.82;;
30862;SDS011;17573;55.922;37.540;2023-02-11T16:36:47;30.02;;;13.90;;
30862;SDS011;17573;55.922;37.540;2023-02-11T16:39:15;25.40;;;14.27;;
30862;SDS011;17573;55.922;37.540;2023-02-11T16:41:41;40.10;;;15.40;;
30862;SDS011;17573;55.922;37.540;2023-02-11T16:44:07;26.25;;;13.40;;
30862;SDS011;17573;55.922;37.540;2023-02-11T16:46:32;35.95;;;14.73;;
30862;SDS011;17573;55.922;37.540;2023-02-11T16:49:03;38.83;;;15.38;;
30862;SDS011;17573;55.922;37.540;2023-02-11T16:51:36;26.05;;;11.07;;
30862;SDS011;17573;55.922;37.540;2023-02-11T16:54:03;29.15;;;15.93;;
30862;SDS011;17573;55.922;37.540;2023-02-11T16:56:29;24.08;;;13.90;;
30862;SDS011;17573;55.922;37.540;2023-02-11T16:58:55;25.38;;;12.07;;